Albion, PA (16401)

7:54 PM EST on February 07, 2016 (GMT -0500)
Albion Cranesville | | Change Station
CLOSE
Current Station
Personal Weather Station
Location: Albion, PA
Elevation: 984 ft
Nearby Weather Stations

Elev 984 ft 41.89 °N, 80.35 °W | Updated 14 minutes ago

Mostly Cloudy
Mostly Cloudy
42.1 °F
Feels Like 42 °F
N
1.1
Wind Variable Wind from SSW

Today
High -- | Low -- °F
--% Chance of Precip.
Yesterday
High -- | Low -- °F
Precip. -- in
Pressure 29.87 in
Visibility 10.0 miles
Clouds Clear
Windchill 42 °F
Dew Point 29 °F
Humidity 60%
Rainfall 0.00 in
Snow Depth Not available.
7:28 AM 5:43 PM
Waning Crescent, 0% visible
METAR KERI 080051Z 17007KT 10SM CLR 07/M04 A2985 RMK AO2 SLP114 T00721044
Pressure 29.87 in
Visibility 10.0 miles
Clouds Clear
Windchill 42 °F
Dew Point 29 °F
Humidity 60%
Rainfall 0.00 in
Snow Depth Not available.
7:28 AM 5:43 PM
Waning Crescent, 0% visible
METAR KERI 080051Z 17007KT 10SM CLR 07/M04 A2985 RMK AO2 SLP114 T00721044

10-Day Weather Forecast

Almanac

Astronomy

Feb. 07, 2016 Rise Set
Actual Time
Civil Twilight
Nautical Twilight
Astronomical Twilight
Moon
Length of Visible Light
Length of Day
Tomorrow will be .
, % of the Moon is Illuminated

Today's Extremes

State Highs State Lows

Community

WunderPhotos

Upload Photos

1,891,339 photos uploaded!

WunderBlog® & News

Nearby

Air Quality

  Air Quality AQ Index Pollutant
Not available.

Snow Depth

Station Depth Elevation

Earthquake Activity

City Distance Mag. Time & Date
Minimum magnitude displayed is 2.5.

Coastal Water Temperatures

Place Temperature

Stations

Nearby Weather Stations

Station Location Temp. Windchill Dew Point Humidity Wind Precip. Elev Updated Type
                   

Watches & Warnings

There are currently no watches in effect.